Time;durP1;ratioP1;P1;durP2;ratioP2;P2;SDS_P1;SDS_P2;PMS_P1;PMS_P2;Temp;Humidity;BMP_temperature;BMP_pressure;BME280_temperature;BME280_humidity;BME280_pressure;Samples;Min_cycle;Max_cycle;Signal;HPM_P1;HPM_P2
2021/09/30 00:00:47;;;;;;;2.20;1.67;;;14.60;77.50;;;14.11;63.52;95659.56;5052478;28;20686;-79
2021/09/30 00:03:15;;;;;;;2.15;2.00;;;14.50;77.30;;;14.12;63.52;95663.00;5035733;28;20235;-79
2021/09/30 00:05:43;;;;;;;2.05;1.80;;;14.50;77.30;;;14.09;63.46;95662.34;5051783;28;20231;-80
2021/09/30 00:08:11;;;;;;;4.30;1.77;;;14.50;77.40;;;14.08;63.57;95670.47;5035460;28;20657;-80
2021/09/30 00:10:44;;;;;;;2.45;1.90;;;14.50;77.30;;;14.06;63.35;95667.22;5028414;28;20616;-80
2021/09/30 00:13:37;;;;;;;1.85;1.75;;;14.50;77.10;;;14.05;63.11;95670.88;5033882;28;20294;-79
2021/09/30 00:41:08;;;;;;;1.50;1.40;;;14.30;76.50;;;13.88;62.52;95671.19;5052099;28;20211;-79
2021/09/30 00:46:48;;;;;;;1.50;1.40;;;14.20;76.30;;;13.86;62.36;95659.19;5048219;28;20730;-79
2021/09/30 02:18:34;;;;;;;1.27;1.20;;;13.70;75.70;;;13.25;62.13;95779.91;5038969;28;20749;-79
2021/09/30 02:21:28;;;;;;;1.30;1.20;;;13.70;75.50;;;13.24;61.80;95783.56;5033813;28;20226;-80
2021/09/30 02:24:19;;;;;;;2.00;1.10;;;13.70;75.60;;;13.23;61.97;95781.94;5033984;28;20196;-79
2021/09/30 03:00:37;;;;;;;1.10;1.05;;;13.50;75.50;;;13.15;61.75;95807.56;5039459;28;20219;-80
2021/09/30 03:03:04;;;;;;;1.23;1.13;;;13.50;75.50;;;13.16;61.74;95812.66;5067856;28;20261;-80
2021/09/30 03:05:33;;;;;;;1.00;1.00;;;13.50;75.60;;;13.16;61.70;95810.03;5036847;28;20227;-80
2021/09/30 03:08:01;;;;;;;1.05;1.02;;;13.60;75.70;;;13.18;61.78;95815.09;5036707;28;20203;-81
2021/09/30 03:10:29;;;;;;;1.00;1.00;;;13.50;75.60;;;13.11;61.32;95801.88;5052773;28;20445;-80
2021/09/30 03:12:56;;;;;;;2.83;1.20;;;13.50;75.60;;;13.14;61.70;95812.00;5036325;28;20202;-80
2021/09/30 03:23:39;;;;;;;1.17;1.00;;;13.50;75.60;;;13.05;61.53;95826.28;5026686;28;20202;-80
2021/09/30 03:26:08;;;;;;;1.05;0.98;;;13.50;75.50;;;13.04;61.69;95830.75;5033102;28;20327;-80
2021/09/30 03:28:37;;;;;;;2.17;1.20;;;13.50;75.50;;;13.02;61.68;95826.66;5016641;28;20207;-81
2021/09/30 03:31:06;;;;;;;1.30;1.20;;;13.40;75.50;;;12.97;61.68;95825.41;5035419;28;20780;-79
2021/09/30 03:33:49;;;;;;;1.40;1.30;;;13.40;75.40;;;12.93;61.70;95825.97;5024408;28;20615;-80
2021/09/30 03:36:17;;;;;;;1.10;1.10;;;13.40;75.30;;;12.85;61.47;95826.06;5036047;28;20563;-80
2021/09/30 03:38:44;;;;;;;1.58;1.05;;;13.40;75.30;;;12.78;61.39;95834.69;5053282;28;20191;-81
2021/09/30 03:41:12;;;;;;;1.30;1.00;;;13.30;75.30;;;12.72;61.49;95832.78;5016333;28;20274;-80
2021/09/30 03:43:39;;;;;;;1.10;1.10;;;13.20;75.20;;;12.65;61.93;95840.56;5061884;28;20281;-80
2021/09/30 03:46:07;;;;;;;1.20;1.20;;;13.20;75.20;;;12.60;61.72;95848.19;5068661;28;20246;-81
2021/09/30 03:48:54;;;;;;;1.58;1.10;;;13.20;75.50;;;12.53;61.84;95849.91;5038358;28;20253;-80
2021/09/30 03:51:32;;;;;;;1.30;1.08;;;13.20;75.30;;;12.48;62.00;95853.09;5036354;28;20314;-80
2021/09/30 03:57:01;;;;;;;3.35;1.08;;;13.00;75.40;;;12.42;62.23;95863.53;5036561;28;20218;-81
2021/09/30 03:59:28;;;;;;;1.13;1.10;;;12.90;75.40;;;12.40;62.24;95876.88;5065759;28;20535;-81
2021/09/30 04:02:20;;;;;;;1.17;1.02;;;12.90;75.60;;;12.37;62.49;95871.94;5050701;28;20593;-81
2021/09/30 04:04:48;;;;;;;1.30;1.20;;;12.90;75.60;;;12.36;62.35;95870.31;5032299;28;20196;-81
2021/09/30 04:07:17;;;;;;;1.48;1.38;;;12.90;75.60;;;12.36;62.24;95867.69;5048939;28;20270;-81
2021/09/30 04:09:44;;;;;;;1.20;1.10;;;12.80;75.60;;;12.34;62.39;95877.59;5047265;28;20267;-82
2021/09/30 04:12:13;;;;;;;1.40;1.30;;;12.80;75.70;;;12.32;62.42;95872.47;5048725;28;20215;-81
2021/09/30 04:14:41;;;;;;;1.17;1.15;;;12.90;75.90;;;12.31;62.13;95870.03;5029879;28;20776;-82
2021/09/30 04:17:09;;;;;;;1.10;1.00;;;12.80;75.90;;;12.33;62.22;95863.59;5014018;28;20226;-81
2021/09/30 04:19:39;;;;;;;1.00;1.00;;;12.80;76.00;;;12.30;62.26;95868.41;5031179;28;20326;-80
2021/09/30 04:22:06;;;;;;;1.20;1.10;;;12.80;76.00;;;12.33;62.43;95866.22;5042190;28;20203;-81
2021/09/30 04:24:34;;;;;;;1.00;1.00;;;12.80;75.90;;;12.30;62.10;95871.88;5050329;28;20207;-81
2021/09/30 04:27:05;;;;;;;1.10;1.00;;;12.80;75.80;;;12.26;62.16;95872.41;5050058;28;20281;-81
2021/09/30 04:29:32;;;;;;;1.20;1.10;;;12.70;75.60;;;12.18;62.15;95878.53;5033519;28;20382;-81
2021/09/30 04:31:59;;;;;;;1.20;1.10;;;12.70;75.60;;;12.13;62.03;95883.50;5033643;28;20583;-80
2021/09/30 04:34:27;;;;;;;1.33;1.23;;;12.70;75.50;;;12.03;62.30;95881.13;5035209;28;20203;-81
2021/09/30 04:36:54;;;;;;;1.00;1.00;;;12.70;75.50;;;11.97;62.22;95887.09;5035303;28;20700;-81
2021/09/30 04:39:23;;;;;;;29.40;10.05;;;12.60;75.50;;;11.84;62.03;95880.59;5019585;28;20196;-82
2021/09/30 04:41:50;;;;;;;26.33;10.35;;;12.50;75.40;;;11.80;61.96;95895.09;5018612;28;20215;-81
2021/09/30 04:44:20;;;;;;;17.02;6.97;;;12.40;75.30;;;11.73;62.18;95895.94;5018777;28;20200;-81
2021/09/30 04:46:51;;;;;;;6.55;3.88;;;12.40;75.40;;;11.65;62.27;95902.06;5019078;28;20585;-81
2021/09/30 04:49:38;;;;;;;3.67;2.35;;;12.40;75.40;;;11.56;62.26;95900.47;5037030;28;20208;-80
2021/09/30 04:52:06;;;;;;;2.65;1.65;;;12.20;75.40;;;11.50;62.23;95912.50;5035269;28;20231;-82
2021/09/30 04:54:35;;;;;;;1.77;1.30;;;12.20;75.40;;;11.43;62.34;95904.47;5034718;28;20576;-80
2021/09/30 04:57:03;;;;;;;1.70;1.35;;;12.20;75.50;;;11.34;62.54;95901.09;5017999;28;20369;-80
2021/09/30 04:59:33;;;;;;;1.30;1.20;;;12.00;75.50;;;11.25;62.47;95891.59;5032846;28;20212;-80
2021/09/30 05:02:27;;;;;;;1.77;1.00;;;11.90;75.50;;;11.20;62.65;95896.56;5033099;28;20251;-80
2021/09/30 05:04:55;;;;;;;1.10;1.10;;;11.90;75.60;;;11.14;62.57;95902.50;5024820;28;20204;-82
2021/09/30 05:07:23;;;;;;;1.00;1.00;;;11.80;75.70;;;11.10;63.00;95909.88;5031550;28;20212;-81
2021/09/30 05:09:52;;;;;;;1.30;1.20;;;11.80;75.80;;;11.08;62.93;95903.97;5015440;28;20737;-81
2021/09/30 05:12:21;;;;;;;1.30;1.20;;;11.70;75.70;;;11.09;63.09;95917.94;5032703;28;20747;-80
2021/09/30 05:14:49;;;;;;;1.20;1.10;;;11.80;75.80;;;11.11;63.00;95910.69;5041030;28;20278;-81
2021/09/30 05:17:20;;;;;;;1.17;1.10;;;11.70;75.80;;;11.14;63.11;95910.38;5024942;28;20221;-81
2021/09/30 05:19:51;;;;;;;2.00;1.10;;;11.80;75.80;;;11.15;62.87;95915.44;5069893;28;20717;-80
2021/09/30 05:22:19;;;;;;;1.00;1.00;;;11.70;75.80;;;11.16;62.65;95911.84;5033147;28;20219;-81
2021/09/30 05:24:46;;;;;;;1.30;1.20;;;11.70;75.80;;;11.17;62.87;95929.22;5033332;28;20195;-80
2021/09/30 05:27:13;;;;;;;2.08;1.20;;;11.80;75.90;;;11.15;62.83;95917.25;5025007;28;20232;-80
2021/09/30 05:29:41;;;;;;;1.38;1.10;;;11.70;75.80;;;11.13;63.40;95919.22;5065437;28;20192;-79
2021/09/30 05:32:10;;;;;;;3.10;1.20;;;11.70;76.00;;;11.10;62.98;95920.41;5015330;28;20320;-79
2021/09/30 05:34:53;;;;;;;2.13;1.20;;;11.60;76.00;;;11.11;63.32;95923.81;5050135;28;20200;-81
2021/09/30 05:37:22;;;;;;;2.45;1.40;;;11.60;75.90;;;11.10;63.12;95930.91;5049071;28;20230;-81
2021/09/30 05:39:49;;;;;;;1.75;1.20;;;11.60;76.00;;;11.08;63.12;95924.97;5034030;28;20200;-80
2021/09/30 05:42:17;;;;;;;1.30;1.20;;;11.70;76.10;;;11.08;63.11;95927.59;5034265;28;20216;-81
2021/09/30 05:44:48;;;;;;;1.23;1.13;;;11.60;76.30;;;11.11;63.24;95936.94;5050510;28;20223;-80
2021/09/30 05:47:16;;;;;;;1.30;1.20;;;11.60;76.40;;;11.11;63.24;95940.41;5033810;28;20651;-82
2021/09/30 05:49:43;;;;;;;1.33;1.23;;;11.60;76.50;;;11.17;63.09;95942.34;5017515;28;20279;-80
2021/09/30 05:52:29;;;;;;;1.42;1.33;;;11.60;76.60;;;11.18;63.23;95945.78;5035982;28;20234;-80
2021/09/30 05:55:12;;;;;;;1.30;1.10;;;11.60;76.60;;;11.20;63.49;95949.91;5049491;28;20271;-80
2021/09/30 05:57:43;;;;;;;1.50;1.40;;;11.70;76.80;;;11.23;63.63;95961.88;5017994;28;20216;-81
2021/09/30 06:00:16;;;;;;;1.15;1.13;;;11.60;76.70;;;11.26;63.31;95953.66;5018769;28;20196;-80
2021/09/30 06:15:57;;;;;;;1.95;1.80;;;11.80;77.20;;;11.51;64.39;95970.13;5053574;28;20266;-79
2021/09/30 06:18:25;;;;;;;2.58;1.83;;;11.90;77.20;;;11.56;64.04;95968.78;5038139;28;20200;-79
2021/09/30 06:20:55;;;;;;;1.90;1.80;;;11.90;77.20;;;11.60;63.93;95970.09;5027664;28;20219;-80
2021/09/30 06:23:23;;;;;;;2.55;1.88;;;11.90;77.20;;;11.63;63.89;95970.56;5038274;28;20196;-80
2021/09/30 06:25:51;;;;;;;1.83;1.70;;;11.90;77.20;;;11.70;64.12;95968.06;5021538;28;20227;-79
2021/09/30 06:28:20;;;;;;;2.25;2.05;;;12.00;77.30;;;11.78;64.06;95973.28;5038129;28;20200;-79
2021/09/30 06:30:51;;;;;;;2.15;2.00;;;12.00;77.40;;;11.84;64.21;95969.97;5037177;28;20223;-79
2021/09/30 06:34:00;;;;;;;3.95;2.15;;;12.10;77.50;;;11.93;63.66;95969.91;5042063;28;20195;-81
2021/09/30 06:36:34;;;;;;;2.10;1.90;;;12.20;77.50;;;12.04;63.96;95974.78;5052627;28;20586;-81
2021/09/30 06:39:03;;;;;;;1.98;1.75;;;12.20;77.60;;;12.16;63.65;95977.84;5044798;28;20196;-79
2021/09/30 06:41:33;;;;;;;1.90;1.80;;;12.30;77.60;;;12.25;63.70;95970.72;5038214;28;20222;-79
2021/09/30 06:44:34;;;;;;;2.17;2.00;;;12.40;77.70;;;12.38;63.62;95972.72;5042719;28;20199;-79
2021/09/30 06:47:20;;;;;;;2.08;1.73;;;12.40;77.70;;;12.51;63.52;95983.47;5039238;28;20266;-79
2021/09/30 06:49:49;;;;;;;2.00;1.80;;;12.60;77.60;;;12.59;63.19;95979.97;5037954;28;20291;-79
2021/09/30 06:52:56;;;;;;;5.43;1.70;;;12.60;77.60;;;12.72;63.28;95976.72;5042762;28;20210;-80
2021/09/30 06:55:52;;;;;;;3.72;1.80;;;12.70;77.50;;;12.77;63.01;95979.66;5044659;28;20302;-79
2021/09/30 06:58:45;;;;;;;2.13;1.80;;;12.90;77.40;;;12.84;63.14;95977.94;5033228;28;20204;-79
2021/09/30 07:01:41;;;;;;;1.77;1.67;;;13.00;77.30;;;12.94;62.99;95978.50;5045011;28;20231;-79
2021/09/30 07:04:24;;;;;;;1.92;1.83;;;13.00;77.40;;;13.11;63.22;95978.34;5032442;28;20195;-79
2021/09/30 07:07:18;;;;;;;2.20;2.00;;;13.10;77.80;;;13.33;63.11;95975.78;5040322;28;20235;-79
2021/09/30 07:09:46;;;;;;;3.30;1.88;;;13.20;77.90;;;13.48;62.85;95976.63;5053177;28;20203;-79
2021/09/30 07:12:13;;;;;;;2.47;2.00;;;13.30;77.60;;;13.61;62.16;95989.16;5013709;28;20266;-79
2021/09/30 07:14:41;;;;;;;2.50;2.28;;;13.40;77.40;;;13.66;61.86;95970.13;5044695;28;20207;-80
2021/09/30 07:17:09;;;;;;;3.05;2.72;;;13.60;77.20;;;13.76;61.49;95982.00;5033199;28;20303;-80
2021/09/30 07:19:37;;;;;;;2.13;1.70;;;13.70;77.20;;;13.83;61.77;95978.63;5036406;28;20286;-78
2021/09/30 07:22:07;;;;;;;2.03;1.90;;;13.80;77.30;;;13.88;61.76;95992.09;5033798;28;20211;-78
2021/09/30 07:24:38;;;;;;;1.80;1.70;;;13.90;77.40;;;13.93;61.95;95993.16;5028519;28;20192;-78
2021/09/30 07:27:08;;;;;;;1.73;1.63;;;13.90;77.40;;;14.04;62.19;95994.50;5018541;28;20757;-78
2021/09/30 07:29:36;;;;;;;1.77;1.67;;;14.00;77.50;;;14.16;62.01;95997.47;5036293;28;20612;-79
2021/09/30 07:32:04;;;;;;;2.10;1.90;;;14.10;77.50;;;14.25;61.32;95998.16;5052946;28;20223;-78
2021/09/30 07:34:35;;;;;;;1.70;1.60;;;14.10;76.80;;;14.36;61.60;96000.28;5037137;28;20196;-78
2021/09/30 07:37:02;;;;;;;1.70;1.60;;;14.30;77.00;;;14.44;61.61;95993.25;5035997;28;20203;-78
2021/09/30 07:39:30;;;;;;;1.70;1.60;;;14.30;77.10;;;14.61;61.66;95996.47;5069572;28;20230;-78
2021/09/30 07:41:58;;;;;;;2.28;1.65;;;14.50;77.30;;;14.73;61.62;96011.63;5052525;28;20310;-78
2021/09/30 07:44:26;;;;;;;2.53;1.95;;;14.60;76.90;;;14.80;60.79;96006.41;5052966;28;20203;-78
2021/09/30 07:46:55;;;;;;;2.75;2.00;;;14.70;76.50;;;14.81;60.67;96004.59;5036543;28;20232;-78
2021/09/30 07:49:22;;;;;;;3.97;2.10;;;14.80;76.30;;;14.87;60.58;96003.81;5036551;28;20195;-78
2021/09/30 07:51:50;;;;;;;2.10;1.88;;;14.80;76.00;;;14.87;60.29;96003.81;5069086;28;20247;-78
2021/09/30 07:54:17;;;;;;;1.95;1.70;;;14.90;75.60;;;14.81;59.92;95994.81;5036278;28;20187;-78
2021/09/30 07:56:45;;;;;;;1.80;1.70;;;15.00;75.40;;;14.82;60.23;96009.66;5052214;28;20254;-78
2021/09/30 07:59:12;;;;;;;2.35;1.70;;;14.90;75.20;;;14.80;60.22;96002.94;5036085;28;20608;-78
2021/09/30 08:01:39;;;;;;;2.17;1.70;;;15.00;75.20;;;14.80;60.42;96005.59;5052517;28;20226;-79
2021/09/30 08:04:07;;;;;;;2.75;1.83;;;15.00;75.20;;;14.78;60.12;96007.59;5036211;28;20242;-79
2021/09/30 08:06:39;;;;;;;2.13;1.90;;;15.00;75.30;;;14.80;59.69;96008.22;5068966;28;20223;-79
2021/09/30 08:09:06;;;;;;;1.70;1.60;;;15.00;74.90;;;14.86;59.86;96002.19;5036284;28;20642;-79
2021/09/30 08:11:34;;;;;;;1.70;1.60;;;15.10;75.20;;;14.98;59.94;95999.84;5035997;28;20275;-78
2021/09/30 08:14:02;;;;;;;2.35;1.50;;;15.00;75.50;;;15.15;59.92;96003.81;5068679;28;20191;-80
2021/09/30 08:16:29;;;;;;;2.17;1.77;;;15.10;75.40;;;15.30;59.28;96021.38;5052453;28;20227;-79
2021/09/30 08:19:01;;;;;;;1.50;1.40;;;15.20;75.60;;;15.42;59.21;96011.91;5036458;28;20202;-80
2021/09/30 08:21:28;;;;;;;1.70;1.60;;;15.30;75.40;;;15.56;58.68;96002.19;5068428;28;20254;-80
2021/09/30 08:23:56;;;;;;;1.60;1.50;;;15.30;75.30;;;15.68;57.78;96002.47;5034597;28;20219;-80
2021/09/30 08:26:24;;;;;;;1.63;1.52;;;15.50;74.70;;;15.72;57.61;96010.81;5051190;28;20270;-80
2021/09/30 08:28:54;;;;;;;1.63;1.52;;;15.60;74.40;;;15.78;57.73;96005.56;5051139;28;20192;-80
2021/09/30 08:31:22;;;;;;;1.63;1.52;;;15.70;74.20;;;15.86;57.94;95998.50;5052066;28;20298;-79
2021/09/30 08:33:50;;;;;;;1.50;1.30;;;15.70;74.30;;;15.91;57.40;96001.38;5019089;28;20289;-79
2021/09/30 08:36:18;;;;;;;2.00;1.50;;;15.80;74.00;;;15.94;57.62;96001.78;5035613;28;20696;-82
2021/09/30 08:38:46;;;;;;;1.50;1.40;;;15.90;74.10;;;15.92;57.37;95997.72;5035650;28;20199;-80
2021/09/30 08:41:14;;;;;;;1.35;1.25;;;15.90;73.60;;;15.89;56.88;95992.81;5068165;28;20318;-78
2021/09/30 08:43:43;;;;;;;1.90;1.70;;;15.90;73.20;;;15.86;55.88;96001.97;5085285;28;20265;-78
2021/09/30 08:46:10;;;;;;;1.60;1.50;;;15.90;72.70;;;15.84;55.80;95991.59;5051542;28;20246;-79
2021/09/30 08:48:39;;;;;;;1.60;1.50;;;15.90;72.30;;;15.85;55.17;96000.31;5085234;28;20286;-80
2021/09/30 08:51:10;;;;;;;1.40;1.30;;;15.90;72.10;;;15.88;55.25;96007.03;5019324;28;20619;-80
2021/09/30 08:53:38;;;;;;;3.28;1.30;;;15.90;72.00;;;15.88;53.74;95994.66;5051604;28;20214;-79
2021/09/30 08:56:08;;;;;;;1.40;1.30;;;15.90;71.00;;;15.90;54.66;95994.44;5035275;28;20629;-79
2021/09/30 08:58:37;;;;;;;1.48;1.23;;;15.90;71.10;;;15.89;52.65;96000.75;5051737;28;20226;-79
2021/09/30 09:01:08;;;;;;;1.30;1.20;;;15.90;70.40;;;15.94;53.10;95998.31;5084415;28;20281;-80
2021/09/30 09:03:42;;;;;;;3.08;1.30;;;16.00;70.50;;;15.99;54.04;95994.06;5051790;28;20213;-79
2021/09/30 09:06:33;;;;;;;1.52;1.40;;;16.00;70.50;;;16.00;52.39;96003.63;5051434;28;20273;-80
2021/09/30 09:09:27;;;;;;;1.38;1.10;;;16.00;70.20;;;16.04;52.04;96001.41;5019117;28;20231;-79
2021/09/30 09:11:56;;;;;;;1.17;1.08;;;16.00;69.70;;;16.08;52.19;95999.19;5051026;28;20215;-78
2021/09/30 09:14:36;;;;;;;1.95;1.10;;;16.10;69.60;;;16.16;51.70;96004.28;5033688;28;20290;-81
2021/09/30 09:17:09;;;;;;;1.10;1.00;;;16.10;69.30;;;16.28;52.18;96008.00;5049057;28;20230;-80
2021/09/30 09:19:45;;;;;;;1.40;1.30;;;16.10;69.40;;;16.29;50.95;96006.16;5034854;28;20211;-79
2021/09/30 09:22:20;;;;;;;2.60;1.20;;;16.20;68.60;;;16.31;51.10;95999.63;5034699;28;20218;-79
2021/09/30 09:25:13;;;;;;;1.70;1.13;;;16.30;68.60;;;16.39;51.54;96011.84;5051174;28;20179;-79
2021/09/30 09:27:47;;;;;;;1.48;1.00;;;16.30;69.00;;;16.41;48.88;96003.72;5034586;28;20231;-80
2021/09/30 09:30:37;;;;;;;1.30;1.20;;;16.30;67.40;;;16.50;48.05;95999.84;5051004;28;20195;-80
2021/09/30 09:33:36;;;;;;;2.22;1.23;;;16.40;67.20;;;16.59;48.13;96001.31;5051070;28;20294;-79
2021/09/30 09:36:09;;;;;;;1.45;1.08;;;16.40;67.00;;;16.80;49.00;96008.22;5035230;28;20314;-80
2021/09/30 09:38:43;;;;;;;1.00;1.00;;;16.50;67.40;;;17.04;50.08;95999.91;5051208;28;20183;-80
2021/09/30 09:41:19;;;;;;;1.23;1.00;;;16.60;68.30;;;17.19;49.46;95997.84;5050045;28;20686;-78
2021/09/30 09:43:48;;;;;;;1.23;1.00;;;16.80;67.90;;;17.36;49.87;96000.06;5051171;28;20244;-79
2021/09/30 09:46:21;;;;;;;2.03;1.10;;;16.90;68.20;;;17.49;50.56;95999.19;5034466;28;20221;-80
2021/09/30 09:48:55;;;;;;;1.63;1.20;;;17.00;68.30;;;17.58;50.16;96003.28;5048438;28;20195;-80
2021/09/30 09:51:22;;;;;;;1.30;1.00;;;17.20;68.10;;;17.64;50.73;95997.13;5049036;28;20261;-78
2021/09/30 09:53:57;;;;;;;1.60;1.00;;;17.40;68.50;;;17.67;49.91;95995.88;5032743;28;20191;-79
2021/09/30 09:56:24;;;;;;;1.30;1.20;;;17.50;67.50;;;17.72;50.06;95998.72;5017458;28;20246;-79
2021/09/30 09:58:57;;;;;;;1.45;1.10;;;17.40;67.90;;;17.74;49.31;95994.81;5015130;28;20257;-79
2021/09/30 10:01:47;;;;;;;1.20;1.10;;;17.60;66.90;;;17.76;49.56;95994.63;5017634;28;21040;-78
2021/09/30 10:04:15;;;;;;;2.85;1.25;;;17.60;66.80;;;17.83;50.37;95995.41;5057022;28;20615;-79
2021/09/30 10:06:42;;;;;;;1.17;1.10;;;17.60;67.60;;;17.87;47.13;95993.97;5033786;28;20243;-80
2021/09/30 10:09:14;;;;;;;1.45;1.00;;;17.70;66.20;;;17.88;48.15;96008.03;5019387;28;20200;-80
2021/09/30 10:11:41;;;;;;;1.63;1.10;;;17.70;66.10;;;17.83;47.16;96000.72;5061129;28;20220;-80
2021/09/30 10:14:09;;;;;;;1.48;1.10;;;17.70;65.60;;;17.89;47.89;95993.75;5062861;28;20661;-79
2021/09/30 10:16:38;;;;;;;1.75;1.00;;;17.80;65.90;;;17.87;45.18;95999.28;5029766;28;20681;-80
2021/09/30 10:19:08;;;;;;;0.90;0.90;;;17.80;64.40;;;17.77;46.75;95990.94;5030033;28;20196;-80
2021/09/30 10:21:38;;;;;;;2.00;1.00;;;17.70;64.90;;;17.68;47.23;95994.88;5038336;28;20243;-79
2021/09/30 10:24:15;;;;;;;1.63;1.02;;;17.70;64.70;;;17.61;47.50;95997.53;5033099;28;20207;-79
2021/09/30 10:26:53;;;;;;;1.30;1.20;;;17.70;65.00;;;17.63;48.01;95992.03;5020112;28;20223;-80
2021/09/30 10:29:46;;;;;;;1.05;1.00;;;17.70;65.10;;;17.65;47.16;95989.97;5051226;28;20210;-78
2021/09/30 10:32:23;;;;;;;1.67;0.90;;;17.70;65.00;;;17.77;46.96;95993.59;5034104;28;20312;-78
2021/09/30 10:34:59;;;;;;;1.42;1.10;;;17.70;65.00;;;17.93;47.74;96000.25;5033152;28;20214;-79
2021/09/30 10:37:31;;;;;;;1.27;1.17;;;17.70;65.10;;;18.01;44.92;96005.34;5034776;28;20296;-79
2021/09/30 10:40:19;;;;;;;0.90;0.90;;;17.70;64.00;;;18.11;46.64;95994.28;5033236;28;20637;-80
2021/09/30 10:42:57;;;;;;;1.23;1.05;;;17.80;65.00;;;18.32;46.92;95990.50;5050588;28;20286;-80
2021/09/30 10:45:38;;;;;;;1.88;0.90;;;17.90;65.90;;;18.60;47.75;95988.47;5048157;28;20199;-80
2021/09/30 10:48:37;;;;;;;1.63;1.20;;;18.00;65.80;;;18.90;48.11;95991.28;5050227;28;20235;-80
2021/09/30 10:51:12;;;;;;;1.85;1.23;;;18.30;66.40;;;19.20;47.40;95985.34;5079368;28;20239;-81
2021/09/30 10:53:45;;;;;;;1.25;1.10;;;18.50;65.60;;;19.45;47.32;95989.78;5036580;28;20198;-80
2021/09/30 10:56:29;;;;;;;1.80;1.08;;;18.70;65.70;;;19.62;46.97;95987.34;5054562;28;20219;-81
2021/09/30 10:59:09;;;;;;;1.08;1.02;;;19.00;65.70;;;19.65;47.44;95993.03;5055192;28;20526;-81
2021/09/30 11:01:49;;;;;;;2.47;1.10;;;19.10;65.50;;;19.56;46.74;95991.72;5053379;28;20261;-77
2021/09/30 11:04:18;;;;;;;1.17;0.90;;;19.20;64.90;;;19.41;46.42;95992.09;5034618;28;20265;-80
2021/09/30 11:07:07;;;;;;;1.15;0.88;;;19.20;64.20;;;19.19;46.71;95995.16;5036225;28;20215;-79
2021/09/30 11:09:35;;;;;;;1.73;0.90;;;19.20;64.20;;;18.96;45.72;95990.47;5050847;28;20185;-79
2021/09/30 11:12:12;;;;;;;1.67;1.20;;;19.20;63.40;;;18.75;46.46;95996.94;5021136;28;20215;-78
2021/09/30 11:14:57;;;;;;;1.17;1.05;;;19.10;63.10;;;18.65;46.78;95992.13;5054403;28;20211;-79
2021/09/30 11:17:37;;;;;;;1.88;1.00;;;19.10;63.80;;;18.60;47.01;95983.97;5012845;28;20869;-79
2021/09/30 11:20:35;;;;;;;0.88;0.85;;;18.90;63.10;;;18.50;46.99;95984.44;5050151;28;20218;-79
2021/09/30 11:23:04;;;;;;;1.05;1.02;;;18.80;63.60;;;18.46;47.13;95985.09;5063279;28;20203;-79
2021/09/30 11:26:10;;;;;;;1.20;1.10;;;18.80;64.10;;;18.54;47.57;95972.38;5053087;28;20271;-79
2021/09/30 11:28:38;;;;;;;1.65;1.00;;;18.70;63.60;;;18.79;46.65;95973.41;5062670;28;20252;-79
2021/09/30 11:31:23;;;;;;;1.45;1.00;;;18.80;64.40;;;19.19;47.29;95971.22;5030450;28;20220;-79
2021/09/30 11:33:56;;;;;;;2.00;1.30;;;18.90;64.30;;;19.60;45.40;95968.13;5052306;28;20192;-78
2021/09/30 11:36:40;;;;;;;1.27;0.85;;;19.10;63.80;;;20.11;46.33;95971.41;5036526;28;20285;-79
2021/09/30 11:39:08;;;;;;;0.90;0.90;;;19.40;64.30;;;20.60;46.04;95960.66;5037165;28;20203;-79
2021/09/30 11:41:39;;;;;;;0.82;0.82;;;19.70;64.80;;;21.01;44.83;95966.97;5036498;28;20250;-79
2021/09/30 11:44:07;;;;;;;1.20;1.10;;;20.00;63.90;;;21.23;43.39;95956.53;5036877;28;20197;-79
2021/09/30 11:46:38;;;;;;;0.90;0.90;;;20.40;63.80;;;21.38;42.83;95955.25;5020303;28;20619;-79
2021/09/30 11:49:08;;;;;;;0.90;0.90;;;20.60;63.00;;;21.65;43.27;95960.09;5035923;28;20231;-80
2021/09/30 11:51:47;;;;;;;1.08;0.90;;;20.80;63.00;;;22.00;43.35;95965.31;5066027;28;20230;-80
2021/09/30 11:54:34;;;;;;;0.90;0.90;;;21.10;62.80;;;22.26;43.17;95962.31;5034204;28;20203;-79
2021/09/30 11:57:03;;;;;;;1.65;0.95;;;21.40;62.70;;;22.52;43.13;95958.22;5051684;28;20675;-79
2021/09/30 11:59:32;;;;;;;0.90;0.90;;;21.70;63.10;;;22.74;43.07;95957.50;5035478;28;20219;-80
2021/09/30 12:02:05;;;;;;;2.70;1.08;;;22.00;62.60;;;22.95;42.63;95958.63;5068680;28;20326;-81
2021/09/30 12:04:39;;;;;;;1.85;0.98;;;22.30;62.40;;;23.09;39.75;95967.94;5066640;28;20625;-80
2021/09/30 12:07:27;;;;;;;1.50;1.02;;;22.50;60.00;;;23.04;39.40;95951.81;5048528;28;20220;-79
2021/09/30 12:10:00;;;;;;;0.95;0.90;;;22.60;59.40;;;23.01;39.21;95955.81;5036054;28;20193;-80
2021/09/30 12:12:35;;;;;;;1.20;1.02;;;22.80;58.70;;;22.96;39.17;95955.72;5036142;28;20578;-80
2021/09/30 12:15:05;;;;;;;1.60;1.17;;;22.80;58.70;;;22.85;37.80;95954.75;5016190;28;20219;-80
2021/09/30 12:17:35;;;;;;;1.00;0.90;;;22.80;57.50;;;22.76;36.37;95947.41;5016048;28;20216;-80
2021/09/30 12:20:15;;;;;;;1.35;1.05;;;22.80;56.30;;;22.62;36.81;95945.03;5016043;28;20258;-80
2021/09/30 12:22:53;;;;;;;1.17;0.93;;;22.80;56.70;;;22.69;37.36;95947.53;5016076;28;20580;-80
2021/09/30 12:25:26;;;;;;;1.10;1.00;;;22.70;56.60;;;22.82;35.62;95949.88;5065246;28;20208;-80
2021/09/30 12:27:57;;;;;;;1.25;1.00;;;22.80;55.60;;;22.95;36.63;95943.41;5048834;28;20259;-80
2021/09/30 12:30:28;;;;;;;1.02;0.85;;;22.80;56.40;;;23.27;37.87;95936.66;5052744;28;20192;-80
2021/09/30 12:33:03;;;;;;;1.10;1.00;;;22.90;57.70;;;23.71;37.97;95943.91;5068896;28;20215;-81
2021/09/30 12:35:38;;;;;;;1.05;0.88;;;23.20;57.90;;;24.08;37.57;95930.69;5035570;28;20195;-81
2021/09/30 12:38:20;;;;;;;0.85;0.85;;;23.50;57.70;;;24.32;37.17;95937.59;5035461;28;20305;-81
2021/09/30 12:40:53;;;;;;;0.75;0.75;;;23.80;57.40;;;24.25;36.77;95932.44;5035177;28;20278;-81
2021/09/30 12:43:30;;;;;;;0.93;0.90;;;23.90;56.80;;;23.96;37.05;95940.72;5025026;28;20208;-81
2021/09/30 12:46:07;;;;;;;1.67;1.00;;;23.90;56.30;;;23.61;37.30;95932.00;5031258;28;20244;-80
2021/09/30 12:48:37;;;;;;;0.90;0.90;;;23.80;55.70;;;23.24;37.85;95929.94;5048309;28;20685;-80
2021/09/30 12:51:11;;;;;;;1.73;1.00;;;23.60;57.50;;;23.09;38.38;95927.00;5051295;28;20223;-81
2021/09/30 12:53:48;;;;;;;0.85;0.85;;;23.50;56.40;;;22.91;38.29;95923.56;5048497;28;20188;-81
2021/09/30 12:56:29;;;;;;;0.75;0.68;;;23.30;56.30;;;22.82;38.69;95933.03;5049144;28;20771;-80
2021/09/30 12:59:14;;;;;;;0.80;0.80;;;23.20;57.00;;;22.97;39.42;95917.22;5048388;28;20196;-81
2021/09/30 13:01:43;;;;;;;1.15;0.80;;;23.20;57.70;;;23.27;39.47;95920.59;5048142;28;20237;-80
2021/09/30 13:04:24;;;;;;;1.13;0.80;;;23.30;57.70;;;23.58;39.08;95916.44;5028459;28;20221;-80
2021/09/30 13:07:06;;;;;;;0.82;0.80;;;23.50;57.40;;;24.06;38.95;95913.22;5066264;28;20224;-78
2021/09/30 13:09:39;;;;;;;0.77;0.77;;;23.80;58.50;;;24.59;38.92;95911.53;5078534;28;20241;-79
2021/09/30 13:12:20;;;;;;;2.50;0.70;;;24.30;59.90;;;25.17;38.23;95902.00;5048279;28;20230;-79
2021/09/30 13:14:54;;;;;;;0.70;0.70;;;24.80;57.20;;;25.68;37.53;95904.13;5034946;28;20698;-79
2021/09/30 13:17:26;;;;;;;0.80;0.80;;;25.30;57.10;;;26.05;36.50;95892.41;5031201;28;20302;-79
2021/09/30 13:20:06;;;;;;;0.70;0.70;;;25.80;56.40;;;26.45;36.39;95896.25;5014986;28;20193;-79
2021/09/30 13:22:42;;;;;;;0.90;0.82;;;26.30;55.60;;;26.68;34.75;95889.50;5014817;28;20603;-80
2021/09/30 13:25:16;;;;;;;0.77;0.70;;;26.70;53.20;;;26.89;34.90;95888.69;5011443;28;20199;-79
2021/09/30 13:27:48;;;;;;;0.80;0.80;;;27.10;53.40;;;27.12;33.53;95890.81;5047457;28;20213;-79
2021/09/30 13:30:31;;;;;;;2.90;1.90;;;27.40;52.30;;;27.48;34.22;95884.53;5034112;28;20199;-79
2021/09/30 13:33:01;;;;;;;2.20;1.23;;;27.80;52.50;;;27.84;33.99;95878.94;5034143;28;20203;-80
2021/09/30 13:35:34;;;;;;;1.58;1.08;;;28.20;52.40;;;28.23;34.18;95882.78;5034908;28;20199;-80
2021/09/30 13:38:02;;;;;;;2.00;0.80;;;28.50;51.50;;;28.61;33.73;95877.59;5050875;28;20195;-79
2021/09/30 13:40:29;;;;;;;0.50;0.50;;;28.90;51.70;;;28.96;33.91;95883.00;5034198;28;20212;-80
2021/09/30 13:42:58;;;;;;;0.65;0.63;;;29.20;51.60;;;29.04;33.10;95883.16;5034536;28;20211;-80